createdAt,value
2022-09-27T00:01:06.773Z,72.83
2022-09-27T00:03:34.513Z,73.05
2022-09-27T00:06:16.454Z,72.56
2022-09-27T00:08:43.634Z,72.90
2022-09-27T00:11:27.748Z,73.23
2022-09-27T00:13:56.549Z,73.74
2022-09-27T00:16:26.110Z,73.58
2022-09-27T00:18:53.636Z,73.98
2022-09-27T00:21:21.118Z,74.01
2022-09-27T00:23:48.279Z,73.66
2022-09-27T00:26:15.450Z,74.12
2022-09-27T00:28:42.863Z,74.16
2022-09-27T00:31:24.671Z,73.73
2022-09-27T00:33:53.612Z,74.36
2022-09-27T00:36:22.020Z,73.91
2022-09-27T00:38:49.635Z,73.79
2022-09-27T00:41:29.085Z,73.98
2022-09-27T00:44:33.758Z,73.73
2022-09-27T00:47:04.704Z,73.35
2022-09-27T00:49:36.447Z,74.15
2022-09-27T00:52:07.709Z,74.11
2022-09-27T00:54:36.938Z,74.13
2022-09-27T00:57:05.146Z,73.94
2022-09-27T00:59:45.906Z,73.50
2022-09-27T01:02:13.141Z,73.66
2022-09-27T01:04:42.735Z,73.73
2022-09-27T01:07:09.948Z,73.78
2022-09-27T01:09:37.427Z,73.81
2022-09-27T01:12:29.440Z,74.16
2022-09-27T01:15:18.221Z,74.17
2022-09-27T01:18:31.093Z,73.90
2022-09-27T01:21:03.858Z,73.71
2022-09-27T01:23:43.979Z,74.17
2022-09-27T01:26:27.896Z,74.35
2022-09-27T01:29:14.446Z,73.91
2022-09-27T01:31:52.686Z,74.03
2022-09-27T01:34:36.101Z,74.25
2022-09-27T01:37:10.516Z,74.02
2022-09-27T01:39:56.305Z,74.06
2022-09-27T01:42:37.814Z,74.25
2022-09-27T01:45:15.074Z,74.38
2022-09-27T01:47:45.819Z,74.10
2022-09-27T01:50:23.708Z,74.09
2022-09-27T01:52:55.771Z,74.45
2022-09-27T01:55:24.934Z,74.32
2022-09-27T01:58:05.040Z,73.95
2022-09-27T02:00:32.802Z,73.57
2022-09-27T02:03:07.050Z,74.07
2022-09-27T02:05:56.146Z,73.95
2022-09-27T02:08:36.248Z,73.26
2022-09-27T02:11:09.088Z,73.37
2022-09-27T02:13:53.023Z,73.30
2022-09-27T02:16:41.311Z,73.90
2022-09-27T02:19:13.391Z,73.67
2022-09-27T02:22:06.805Z,73.36
2022-09-27T02:25:00.455Z,72.88
2022-09-27T02:27:32.167Z,73.31
2022-09-27T02:30:06.751Z,73.39
2022-09-27T02:32:34.533Z,73.03
2022-09-27T02:35:24.381Z,72.81
2022-09-27T02:37:51.945Z,72.96
2022-09-27T02:40:20.182Z,73.24
2022-09-27T02:42:47.388Z,73.17
2022-09-27T02:45:16.696Z,73.29
2022-09-27T02:47:56.797Z,73.17
2022-09-27T02:50:44.824Z,73.29
2022-09-27T02:53:25.968Z,73.25
2022-09-27T02:56:23.986Z,72.72
2022-09-27T02:58:59.757Z,72.72
2022-09-27T03:01:51.359Z,73.01
2022-09-27T03:04:28.824Z,72.77
2022-09-27T03:06:56.829Z,73.13
2022-09-27T03:09:25.698Z,73.12
2022-09-27T03:11:53.430Z,73.28
2022-09-27T03:14:20.608Z,73.53
2022-09-27T03:16:47.816Z,73.17
2022-09-27T03:19:15.085Z,73.32
2022-09-27T03:21:42.352Z,73.46
2022-09-27T03:24:09.535Z,73.36
2022-09-27T03:26:36.634Z,73.28
2022-09-27T03:29:03.786Z,73.49
2022-09-27T03:31:30.966Z,72.86
2022-09-27T03:33:58.151Z,73.40
2022-09-27T03:36:25.372Z,73.23
2022-09-27T03:38:52.519Z,73.53
2022-09-27T03:41:19.916Z,72.84
2022-09-27T03:43:47.033Z,72.75
2022-09-27T03:46:14.224Z,73.01
2022-09-27T03:48:42.599Z,73.27
2022-09-27T03:51:12.333Z,73.13
2022-09-27T03:53:39.472Z,73.25
2022-09-27T03:56:06.724Z,74.08
2022-09-27T03:58:33.848Z,73.70
2022-09-27T04:01:01.104Z,74.34
2022-09-27T04:03:28.236Z,74.06
2022-09-27T04:05:55.571Z,74.95
2022-09-27T04:08:23.098Z,74.72
2022-09-27T04:10:50.187Z,75.33
2022-09-27T04:13:17.658Z,75.59
2022-09-27T04:15:49.835Z,75.82
2022-09-27T04:18:19.147Z,76.42
2022-09-27T04:20:46.286Z,76.97
2022-09-27T04:23:13.354Z,76.86
2022-09-27T04:25:40.518Z,77.24
2022-09-27T04:28:07.634Z,77.38
2022-09-27T04:30:34.814Z,77.08
2022-09-27T04:33:02.006Z,78.00
2022-09-27T04:35:47.962Z,77.42
2022-09-27T04:38:15.053Z,78.64
2022-09-27T04:40:42.106Z,78.78
2022-09-27T04:43:09.684Z,79.09
2022-09-27T04:45:49.770Z,79.99
2022-09-27T04:48:17.046Z,80.49
2022-09-27T04:50:44.230Z,81.32
2022-09-27T04:53:15.162Z,81.33
2022-09-27T04:55:50.047Z,81.89
2022-09-27T04:58:17.671Z,82.77
2022-09-27T05:00:45.498Z,82.71
2022-09-27T05:03:12.822Z,82.97
2022-09-27T05:05:39.901Z,83.75
2022-09-27T05:08:07.660Z,83.93
2022-09-27T05:10:34.761Z,84.36
2022-09-27T05:13:01.968Z,84.88
2022-09-27T05:15:29.065Z,85.26
2022-09-27T05:17:56.240Z,85.33
2022-09-27T05:20:25.406Z,85.55
2022-09-27T05:22:52.867Z,85.95
2022-09-27T05:25:20.215Z,86.90
2022-09-27T05:27:47.398Z,86.89
2022-09-27T05:30:14.505Z,87.74
2022-09-27T05:32:45.494Z,87.62
2022-09-27T05:35:12.654Z,88.41
2022-09-27T05:37:40.683Z,88.60
2022-09-27T05:40:29.413Z,88.61
2022-09-27T05:42:56.379Z,89.85
2022-09-27T05:45:24.689Z,90.18
2022-09-27T05:47:58.390Z,90.40
2022-09-27T05:50:26.496Z,91.99
2022-09-27T05:52:54.340Z,91.76
2022-09-27T05:55:21.764Z,91.83
2022-09-27T05:57:59.928Z,92.47
2022-09-27T06:00:27.718Z,92.89
2022-09-27T06:03:03.042Z,93.17
2022-09-27T06:05:31.757Z,92.99
2022-09-27T06:08:10.319Z,93.52
2022-09-27T06:10:39.080Z,94.44
2022-09-27T06:13:14.321Z,94.70
2022-09-27T06:15:43.314Z,95.51
2022-09-27T06:18:13.609Z,95.81
2022-09-27T06:20:42.893Z,95.05
2022-09-27T06:23:15.762Z,95.45
2022-09-27T06:25:43.030Z,96.07
2022-09-27T06:28:10.904Z,96.27
2022-09-27T06:30:40.092Z,96.33
2022-09-27T06:33:07.628Z,96.36
2022-09-27T06:35:36.051Z,96.93
2022-09-27T06:38:04.960Z,96.98
2022-09-27T06:40:32.158Z,96.96
2022-09-27T06:43:09.357Z,97.55
2022-09-27T06:45:37.387Z,97.64
2022-09-27T06:48:05.738Z,96.99
2022-09-27T06:50:34.625Z,97.53
2022-09-27T06:53:02.292Z,98.40
2022-09-27T06:55:29.441Z,98.34
2022-09-27T06:58:16.018Z,98.84
2022-09-27T07:00:43.530Z,98.61
2022-09-27T07:03:11.498Z,98.45
2022-09-27T07:05:38.688Z,98.69
2022-09-27T07:08:06.819Z,99.27
2022-09-27T07:10:35.805Z,99.73
2022-09-27T07:13:08.037Z,99.24
2022-09-27T07:15:38.880Z,99.80
2022-09-27T07:18:07.287Z,99.84
2022-09-27T07:20:38.492Z,100.00
2022-09-27T07:23:07.120Z,99.63
2022-09-27T07:25:34.589Z,99.64
2022-09-27T07:28:07.207Z,99.67
2022-09-27T07:30:35.483Z,99.89
2022-09-27T07:33:05.090Z,99.11
2022-09-27T07:35:32.769Z,100.00
2022-09-27T07:38:00.004Z,100.00
2022-09-27T07:40:27.262Z,100.00
2022-09-27T07:43:00.328Z,100.00
2022-09-27T07:45:27.567Z,100.00
2022-09-27T07:47:54.734Z,100.00
2022-09-27T07:50:21.884Z,100.00
2022-09-27T07:52:52.978Z,100.00
2022-09-27T07:55:20.166Z,100.00
2022-09-27T07:57:47.289Z,100.00
2022-09-27T08:00:16.727Z,100.00
2022-09-27T08:02:44.358Z,100.00
2022-09-27T08:05:12.417Z,100.00
2022-09-27T08:07:40.198Z,100.00
2022-09-27T08:10:08.898Z,100.00
2022-09-27T08:12:37.173Z,100.00
2022-09-27T08:15:04.989Z,100.00
2022-09-27T08:17:32.565Z,100.00
2022-09-27T08:20:00.227Z,100.00
2022-09-27T08:22:27.369Z,100.00
2022-09-27T08:24:54.554Z,100.00
2022-09-27T08:27:21.700Z,100.00
2022-09-27T08:29:48.887Z,100.00
2022-09-27T08:32:20.794Z,100.00
2022-09-27T08:34:50.203Z,100.00
2022-09-27T08:37:17.416Z,100.00
2022-09-27T08:39:47.761Z,100.00
2022-09-27T08:42:32.465Z,100.00
2022-09-27T08:45:18.879Z,100.00
2022-09-27T08:47:53.193Z,100.00
2022-09-27T08:50:40.015Z,100.00
2022-09-27T08:53:13.426Z,100.00
2022-09-27T08:55:50.681Z,100.00
2022-09-27T08:58:37.327Z,100.00
2022-09-27T09:01:10.594Z,100.00
2022-09-27T09:03:42.889Z,100.00
2022-09-27T09:06:23.687Z,100.00
2022-09-27T09:09:46.695Z,100.00
2022-09-27T09:12:47.907Z,100.00
2022-09-27T09:15:23.653Z,100.00
2022-09-27T09:18:20.467Z,100.00
2022-09-27T09:20:50.912Z,100.00
2022-09-27T09:23:27.112Z,100.00
2022-09-27T09:26:18.738Z,100.00
2022-09-27T09:28:53.422Z,100.00
2022-09-27T09:31:42.272Z,100.00
2022-09-27T09:34:20.618Z,100.00
2022-09-27T09:36:52.620Z,100.00
2022-09-27T09:39:54.309Z,100.00
2022-09-27T09:42:28.096Z,100.00
2022-09-27T09:45:20.916Z,100.00
2022-09-27T09:48:17.780Z,100.00
2022-09-27T09:50:50.678Z,100.00
2022-09-27T09:53:33.298Z,100.00
2022-09-27T09:56:06.076Z,100.00
2022-09-27T09:58:55.202Z,100.00
2022-09-27T10:01:28.967Z,100.00
2022-09-27T10:03:57.075Z,100.00
2022-09-27T10:06:25.402Z,100.00
2022-09-27T10:08:54.887Z,100.00
2022-09-27T10:11:27.440Z,100.00
2022-09-27T10:13:56.464Z,100.00
2022-09-27T10:16:24.162Z,100.00
2022-09-27T10:18:53.410Z,100.00
2022-09-27T10:21:23.647Z,100.00
2022-09-27T10:24:17.738Z,100.00
2022-09-27T10:26:47.583Z,100.00
2022-09-27T10:29:20.380Z,100.00
2022-09-27T10:31:48.758Z,100.00
2022-09-27T10:34:29.809Z,100.00
2022-09-27T10:37:07.631Z,99.15
2022-09-27T10:39:35.633Z,98.42
2022-09-27T10:42:38.692Z,98.02
2022-09-27T10:45:32.542Z,98.79
2022-09-27T10:48:01.422Z,98.52
2022-09-27T10:50:50.901Z,98.57
2022-09-27T10:53:20.763Z,97.58
2022-09-27T10:55:50.803Z,96.77
2022-09-27T10:58:32.429Z,95.74
2022-09-27T11:01:07.815Z,94.74
2022-09-27T11:03:45.801Z,94.36
2022-09-27T11:06:25.068Z,93.47
2022-09-27T11:08:53.458Z,93.40
2022-09-27T11:11:21.748Z,92.43
2022-09-27T11:13:59.409Z,92.47
2022-09-27T11:16:37.104Z,93.07
2022-09-27T11:19:15.403Z,92.16
2022-09-27T11:22:20.133Z,91.85
2022-09-27T11:25:02.009Z,92.17
2022-09-27T11:27:55.016Z,93.45
2022-09-27T11:30:23.978Z,94.37
2022-09-27T11:33:01.599Z,93.97
2022-09-27T11:35:32.637Z,94.83
2022-09-27T11:38:40.855Z,94.40
2022-09-27T11:41:34.346Z,95.42
2022-09-27T11:44:21.169Z,95.66
2022-09-27T11:46:57.170Z,97.02
2022-09-27T11:49:43.634Z,97.02
2022-09-27T11:52:16.911Z,96.80
2022-09-27T11:55:09.510Z,96.34
2022-09-27T11:57:43.104Z,90.78
2022-09-27T12:00:24.257Z,91.93
2022-09-27T12:03:33.270Z,94.10
2022-09-27T12:06:07.878Z,97.47
2022-09-27T12:08:48.383Z,99.89
2022-09-27T12:11:30.396Z,100.00
2022-09-27T12:14:02.048Z,100.00
2022-09-27T12:16:30.892Z,100.00
2022-09-27T12:18:59.572Z,100.00
2022-09-27T12:21:27.503Z,100.00
2022-09-27T12:23:59.531Z,100.00
2022-09-27T12:26:30.650Z,100.00
2022-09-27T12:29:14.089Z,100.00
2022-09-27T12:31:46.309Z,100.00
2022-09-27T12:34:20.521Z,100.00
2022-09-27T12:37:09.608Z,100.00
2022-09-27T12:40:00.621Z,100.00
2022-09-27T12:42:37.013Z,100.00
2022-09-27T12:45:05.352Z,100.00
2022-09-27T12:48:09.786Z,100.00
2022-09-27T12:50:52.736Z,100.00
2022-09-27T12:53:25.418Z,100.00
2022-09-27T12:56:00.557Z,100.00
2022-09-27T12:59:01.860Z,100.00
2022-09-27T13:01:55.416Z,100.00
2022-09-27T13:05:04.065Z,100.00
2022-09-27T13:08:19.256Z,100.00
2022-09-27T13:10:58.203Z,100.00
2022-09-27T13:13:26.579Z,100.00
2022-09-27T13:15:59.495Z,100.00
2022-09-27T13:18:35.667Z,99.19
2022-09-27T13:21:04.919Z,99.54
2022-09-27T13:23:32.113Z,99.64
2022-09-27T13:26:04.117Z,98.29
2022-09-27T13:28:35.963Z,97.22
2022-09-27T13:31:13.927Z,97.38
2022-09-27T13:33:53.605Z,98.08
2022-09-27T13:36:32.124Z,97.18
2022-09-27T13:39:04.415Z,97.78
2022-09-27T13:41:48.500Z,98.37
2022-09-27T13:44:49.388Z,98.79
2022-09-27T13:47:37.702Z,100.00
2022-09-27T13:50:26.886Z,100.00
2022-09-27T13:53:00.414Z,99.56
2022-09-27T13:55:42.726Z,100.00
2022-09-27T13:58:18.900Z,100.00
2022-09-27T14:00:49.845Z,100.00
2022-09-27T14:03:49.424Z,100.00
2022-09-27T14:06:39.828Z,100.00
2022-09-27T14:09:19.267Z,99.79
2022-09-27T14:11:52.524Z,100.00
2022-09-27T14:14:23.378Z,99.38
2022-09-27T14:16:50.790Z,99.04
2022-09-27T14:19:28.192Z,99.37
2022-09-27T14:22:27.608Z,98.86
2022-09-27T14:24:56.022Z,98.35
2022-09-27T14:27:27.447Z,98.36
2022-09-27T14:30:13.360Z,99.72
2022-09-27T14:32:48.608Z,100.00
2022-09-27T14:35:38.463Z,99.13
2022-09-27T14:38:32.947Z,93.67
2022-09-27T14:41:00.375Z,87.09
2022-09-27T14:43:28.844Z,85.75
2022-09-27T14:46:01.314Z,85.34
2022-09-27T14:48:33.894Z,83.83
2022-09-27T14:51:06.200Z,83.50
2022-09-27T14:53:41.729Z,85.83
2022-09-27T14:56:18.040Z,85.81
2022-09-27T14:58:48.211Z,85.37
2022-09-27T15:01:20.396Z,85.91
2022-09-27T15:03:49.043Z,87.38
2022-09-27T15:06:17.283Z,87.39
2022-09-27T15:08:47.656Z,88.44
2022-09-27T15:11:15.597Z,88.57
2022-09-27T15:13:43.893Z,89.57
2022-09-27T15:16:18.086Z,90.22
2022-09-27T15:18:46.802Z,91.26
2022-09-27T15:21:16.338Z,91.24
2022-09-27T15:23:45.315Z,91.69
2022-09-27T15:26:18.682Z,91.75
2022-09-27T15:28:48.030Z,91.74
2022-09-27T15:31:16.046Z,91.60
2022-09-27T15:33:53.443Z,91.46
2022-09-27T15:36:51.232Z,92.48
2022-09-27T15:39:29.398Z,90.13
2022-09-27T15:42:14.603Z,89.34
2022-09-27T15:44:55.759Z,88.59
2022-09-27T15:47:34.636Z,89.38
2022-09-27T15:50:17.345Z,90.61
2022-09-27T15:52:57.611Z,91.15
2022-09-27T15:55:26.663Z,91.58
2022-09-27T15:58:02.138Z,92.69
2022-09-27T16:00:29.922Z,93.41
2022-09-27T16:02:57.113Z,93.95
2022-09-27T16:05:24.532Z,94.56
2022-09-27T16:07:51.687Z,94.43
2022-09-27T16:10:20.846Z,94.67
2022-09-27T16:12:47.945Z,95.15
2022-09-27T16:15:15.384Z,95.40
2022-09-27T16:17:43.564Z,96.23
2022-09-27T16:20:24.959Z,94.96
2022-09-27T16:22:53.825Z,95.24
2022-09-27T16:25:21.694Z,95.62
2022-09-27T16:27:49.305Z,95.82
2022-09-27T16:30:17.153Z,95.34
2022-09-27T16:32:45.789Z,95.33
2022-09-27T16:35:14.345Z,94.57
2022-09-27T16:37:41.740Z,94.80
2022-09-27T16:40:10.314Z,94.39
2022-09-27T16:42:38.028Z,90.77
2022-09-27T16:45:11.005Z,91.57
2022-09-27T16:47:39.055Z,92.28
2022-09-27T16:50:25.046Z,92.73
2022-09-27T16:52:52.489Z,92.85
2022-09-27T16:55:21.046Z,92.69
2022-09-27T16:57:49.031Z,92.95
2022-09-27T17:00:17.199Z,93.96
2022-09-27T17:02:48.567Z,93.55
2022-09-27T17:05:16.595Z,92.46
2022-09-27T17:07:43.989Z,93.21
2022-09-27T17:10:11.044Z,94.16
2022-09-27T17:12:38.124Z,94.14
2022-09-27T17:15:05.662Z,94.83
2022-09-27T17:17:33.033Z,95.21
2022-09-27T17:20:00.156Z,95.55
2022-09-27T17:22:27.245Z,95.79
2022-09-27T17:24:54.393Z,96.21
2022-09-27T17:27:25.795Z,96.25
2022-09-27T17:29:53.628Z,96.61
2022-09-27T17:32:24.151Z,96.49
2022-09-27T17:34:52.307Z,95.67
2022-09-27T17:37:19.895Z,95.50
2022-09-27T17:39:47.044Z,96.14
2022-09-27T17:42:14.140Z,96.17
2022-09-27T17:44:41.270Z,96.23
2022-09-27T17:47:27.150Z,96.03
2022-09-27T17:50:13.139Z,96.19
2022-09-27T17:52:40.385Z,96.18
2022-09-27T17:55:07.811Z,96.34
2022-09-27T17:57:34.857Z,96.01
2022-09-27T18:00:15.132Z,95.50
2022-09-27T18:02:42.447Z,95.35
2022-09-27T18:05:22.938Z,94.92
2022-09-27T18:07:51.342Z,94.68
2022-09-27T18:10:19.142Z,94.85
2022-09-27T18:12:46.839Z,95.57
2022-09-27T18:15:19.151Z,95.10
2022-09-27T18:17:52.413Z,95.33
2022-09-27T18:20:23.337Z,96.47
2022-09-27T18:22:50.808Z,96.59
2022-09-27T18:25:18.182Z,95.96
2022-09-27T18:27:53.188Z,96.98
2022-09-27T18:30:26.110Z,97.24
2022-09-27T18:32:53.572Z,96.19
2022-09-27T18:35:25.765Z,96.07
2022-09-27T18:37:53.545Z,96.24
2022-09-27T18:40:44.338Z,95.85
2022-09-27T18:43:13.791Z,96.84
2022-09-27T18:45:40.989Z,97.27
2022-09-27T18:48:08.569Z,97.73
2022-09-27T18:51:15.698Z,98.13
2022-09-27T18:53:43.809Z,97.69
2022-09-27T18:56:15.317Z,98.02
2022-09-27T18:58:46.218Z,97.10
2022-09-27T19:01:16.246Z,97.38
2022-09-27T19:03:44.026Z,97.63
2022-09-27T19:06:24.298Z,98.12
2022-09-27T19:08:57.125Z,97.81
2022-09-27T19:11:26.463Z,96.11
2022-09-27T19:13:57.407Z,96.56
2022-09-27T19:16:30.846Z,97.27
2022-09-27T19:18:59.191Z,97.52
2022-09-27T19:21:34.590Z,97.01
2022-09-27T19:24:09.676Z,98.04
2022-09-27T19:27:08.515Z,97.79
2022-09-27T19:30:15.980Z,97.65
2022-09-27T19:33:04.331Z,96.73
2022-09-27T19:35:41.883Z,96.41
2022-09-27T19:38:24.518Z,96.75
2022-09-27T19:41:14.648Z,95.63
2022-09-27T19:43:59.004Z,95.79
2022-09-27T19:46:42.725Z,95.45
2022-09-27T19:49:15.958Z,95.69
2022-09-27T19:51:45.253Z,95.69
2022-09-27T19:54:36.915Z,95.58
2022-09-27T19:57:59.354Z,94.39
2022-09-27T20:01:13.772Z,94.03
2022-09-27T20:03:49.419Z,94.13
2022-09-27T20:06:23.438Z,94.45
2022-09-27T20:09:09.238Z,94.67
2022-09-27T20:12:08.452Z,94.05
2022-09-27T20:14:50.735Z,94.12
2022-09-27T20:17:26.554Z,94.05
2022-09-27T20:20:17.561Z,94.07
2022-09-27T20:23:24.956Z,94.17
2022-09-27T20:26:40.143Z,94.61
2022-09-27T20:29:22.258Z,94.74
2022-09-27T20:32:22.478Z,94.45
2022-09-27T20:34:41.543Z,94.18
2022-09-27T20:37:17.204Z,93.57
2022-09-27T20:39:58.641Z,93.34
2022-09-27T20:42:26.416Z,93.98
2022-09-27T20:44:56.043Z,93.79
2022-09-27T20:47:25.161Z,94.44
2022-09-27T20:49:53.562Z,94.52
2022-09-27T20:52:21.807Z,94.00
2022-09-27T20:54:50.537Z,93.89
2022-09-27T20:57:27.749Z,93.82
2022-09-27T21:00:03.447Z,94.14
2022-09-27T21:02:33.071Z,93.67
2022-09-27T21:05:01.168Z,93.51
2022-09-27T21:07:30.308Z,93.73
2022-09-27T21:10:03.436Z,93.81
2022-09-27T21:12:33.058Z,93.89
2022-09-27T21:15:00.980Z,93.84
2022-09-27T21:17:30.616Z,94.34
2022-09-27T21:20:02.550Z,94.13
2022-09-27T21:22:31.503Z,94.55
2022-09-27T21:25:05.315Z,94.96
2022-09-27T21:27:39.127Z,95.58
2022-09-27T21:30:09.608Z,95.25
2022-09-27T21:32:40.920Z,95.77
2022-09-27T21:35:09.590Z,95.78
2022-09-27T21:37:39.383Z,96.24
2022-09-27T21:40:09.204Z,95.44
2022-09-27T21:42:37.634Z,95.57
2022-09-27T21:45:05.524Z,95.33
2022-09-27T21:47:36.256Z,95.72
2022-09-27T21:50:06.165Z,95.43
2022-09-27T21:52:34.900Z,95.15
2022-09-27T21:55:02.771Z,95.38
2022-09-27T21:57:32.083Z,94.65
2022-09-27T22:00:05.528Z,94.70
2022-09-27T22:02:34.585Z,94.33
2022-09-27T22:05:03.856Z,94.60
2022-09-27T22:07:31.848Z,95.38
2022-09-27T22:10:00.314Z,95.28
2022-09-27T22:12:28.978Z,94.57
2022-09-27T22:14:57.123Z,94.35
2022-09-27T22:17:24.354Z,94.58
2022-09-27T22:19:55.099Z,94.05
2022-09-27T22:22:25.602Z,93.90
2022-09-27T22:24:53.155Z,94.17
2022-09-27T22:27:20.984Z,94.14
2022-09-27T22:29:53.378Z,93.41
2022-09-27T22:32:23.335Z,93.60
2022-09-27T22:34:53.546Z,94.04
2022-09-27T22:37:21.690Z,93.50
2022-09-27T22:39:52.328Z,93.99
2022-09-27T22:42:21.331Z,94.68
2022-09-27T22:44:51.037Z,94.05
2022-09-27T22:47:19.313Z,94.14
2022-09-27T22:49:50.276Z,94.43
2022-09-27T22:52:25.625Z,94.45
2022-09-27T22:54:55.098Z,94.75
2022-09-27T22:57:25.327Z,93.83
2022-09-27T22:59:54.691Z,94.16
2022-09-27T23:02:21.999Z,93.67
2022-09-27T23:04:50.454Z,94.73
2022-09-27T23:07:18.030Z,95.15
2022-09-27T23:09:47.339Z,95.33
2022-09-27T23:12:16.656Z,94.85
2022-09-27T23:14:44.764Z,94.10
2022-09-27T23:17:21.441Z,93.72
2022-09-27T23:19:52.317Z,93.65
2022-09-27T23:22:20.187Z,93.62
2022-09-27T23:25:02.001Z,93.84
2022-09-27T23:27:43.210Z,94.22
2022-09-27T23:30:25.474Z,93.59
2022-09-27T23:32:58.328Z,93.99
2022-09-27T23:35:32.170Z,93.96
2022-09-27T23:38:02.215Z,93.45
2022-09-27T23:40:32.007Z,94.07
2022-09-27T23:43:05.848Z,94.04
2022-09-27T23:45:36.096Z,93.64
2022-09-27T23:48:13.003Z,93.63
2022-09-27T23:50:51.913Z,94.08
2022-09-27T23:53:22.674Z,93.99
2022-09-27T23:56:18.202Z,94.01
2022-09-27T23:58:46.628Z,93.47
